Decoded Metar for KRWF (REDWOOD FALL in MN, USA) (IATA:RWF) | Meteo·Mobile Aviation Weather
aviador You're here:

KRWF Decoded Metar

REDWOOD FALL in MN, USA
Report Time2018-12-14 22:53:00
UTC Time2018-12-14 23:37:29
Flight Rules vfr VFR
Wind230° at 04 kt
W.Decomp.*RWY 23: 4.0 kt HW 0.3 kt LCW
RWY 30: 1.1 kt HW 3.8 kt LCW
W.Rank230° ranks 27
Current wind is below 230° avg. (8.2)
Visibility9999 m
Phenomena:N/A
Clouds:N/A
Expected CloudBase > 1,600 ft AGL from Temp-Dew spread
CeilingNone
Temp01°C (ISA -12)
Dew Point-3°C (75% RH)
AAT-2.8°C
QNH1022 hPa
Density Alt-673 ft
Elevation1,020 ft
Report Wrong Elevation
Raw Report
KRWF 142253Z AUTO 23004KT 10SM CLR 01/M03 A3018 RMK AO2 SLP236
T00111028=

Extra information for KRWF:More info

Metar Taf Metar & Taf Last 4 Metars F.Rules Stats Wind Profile Meteogram Temp Stats Airport Information Weather charts Add Link Nearby VenuesMetar ALERT Operation Metar Decoded Social comments

AIRNAV info for KRWF